BLACK BUTTE (BLB)

Elevation: 426' · STONY CR basin · Operator: US Army Corps of Engineers

Provisional data, subject to change.
Query executed Saturday at 19:10:31   clock

Select a sensor type for a plot of data.
Note: Reservoir Flows are daily averages.

Earlier

Date RES ELE    STORAGE    RES CHG    TOC STO    ABV TOC    OUTFLOW    INFLOW    PPT INC    TEMP MN    TEMP MX    EVP PAN   
 FEET   AF   AF   AF   AF   CFS   CFS   INCHES   DEG F   DEG F   INCHES  
10/23/2014 439.51 30814 -73 109224 -78410 22 -13 0.07 14 17 0.04
10/24/2014 439.51 30814 0 107719 -76905 5 13 0.00 13 24 0.12
10/25/2014 439.52 30832 18 106222 -75390 5 24 0.18 14 21 0.14
10/26/2014 439.48 30760 -72 104712 -73952 16 -13 0.00 9 20 0.10
10/27/2014 439.29 30419 -341 103203 -72784 156 -7 0.00 14 23 0.13
10/28/2014 439.05 29992 -427 101698 -71706 198 -11 0.00 10 25 0.10
10/29/2014 438.82 29587 -405 100196 -70609 186 -11 0.00 13 28 0.10
10/30/2014 438.57 29153 -434 98649 -69496 204 -8 0.00 14 25 0.09
10/31/2014 438.43 28912 -241 106609 -77697 121 2 0.08 12 17 0.04
11/01/2014 438.42 28895 -17 95615 -76242 8 4 0.00 9 19 0.07
11/02/2014 438.41 -- -17 94143 -65265 5 -- 0.00 7 20 0.10
11/03/2014 438.40 28861 -- 92632 -63771 2 -- 0.00 9 22 0.09
11/04/2014 438.40 28861 0 91109 -62248 5 10 0.00 8 23 0.08
11/05/2014 438.39 28844 -17 89602 -60758 8 6 0.00 11 27 0.09
11/06/2014 438.39 28844 0 88096 -59252 8 14 0.00 11 24 0.08
11/07/2014 438.39 28844 0 86598 -67459 6 13 0.01 11 26 0.10
11/08/2014 438.39 28844 0 85090 -65986 4 10 0.00 11 26 0.08
11/09/2014 438.39 28844 0 90966 -62122 4 9 0.00 9 27 0.08
11/10/2014 438.38 28827 -17 82086 -53259 4 2 0.04 11 24 0.10
11/11/2014 438.37 28810 -17 80591 -51781 4 -0 0.00 9 20 0.07
11/12/2014 438.37 28810 0 79076 -50266 4 8 0.00 11 18 0.06
11/13/2014 438.39 28844 34 77568 -48724 4 23 0.24 11 15 0.03
11/14/2014 438.39 28844 0 76043 -57152 4 8 0.00 9 19 0.06
11/15/2014 438.38 28827 -17 74545 -55697 4 -1 0.00 8 20 0.07
11/16/2014 438.37 28810 -17 73050 -54241 3 1 0.00 7 17 0.10
11/17/2014 438.36 28793 -17 71547 -42754 4 1 0.00 6 19 0.09
11/18/2014 438.35 28776 -17 70048 -41272 4 -0 0.00 6 17 0.06
11/19/2014 438.38 28827 51 68513 -39686 5 32 0.37 9 12 0.02
11/20/2014 438.41 28878 51 66951 -38073 4 31 0.38 10 11 0.01
11/21/2014 -- -- -- -- -- -- -- -- -- -- --
11/22/2014 -- -- -- -- -- -- -- -- -- -- --

Later | Latest

Warning! This data is preliminary and subject to revision.

Show BLB Map | Plot BLB Data | 1 Month BLB Data | Real-Time BLB Data | BLB Info